sensor_id;sensor_type;location;lat;lon;timestamp;P1;durP1;ratioP1;P2;durP2;ratioP2
55090;SDS011;40985;53.180;5.800;2023-05-14T00:00:19;16.33;;;13.05;;
55090;SDS011;40985;53.180;5.800;2023-05-14T00:02:45;23.50;;;13.57;;
55090;SDS011;40985;53.180;5.800;2023-05-14T00:05:11;19.85;;;12.60;;
55090;SDS011;40985;53.180;5.800;2023-05-14T00:07:37;18.48;;;12.93;;
55090;SDS011;40985;53.180;5.800;2023-05-14T00:10:02;21.13;;;12.52;;
55090;SDS011;40985;53.180;5.800;2023-05-14T00:12:28;19.88;;;12.63;;
55090;SDS011;40985;53.180;5.800;2023-05-14T00:14:54;17.05;;;12.27;;
55090;SDS011;40985;53.180;5.800;2023-05-14T00:17:20;18.40;;;12.40;;
55090;SDS011;40985;53.180;5.800;2023-05-14T00:19:46;20.08;;;12.60;;
55090;SDS011;40985;53.180;5.800;2023-05-14T00:22:12;18.48;;;12.60;;
55090;SDS011;40985;53.180;5.800;2023-05-14T00:24:38;22.40;;;13.18;;
55090;SDS011;40985;53.180;5.800;2023-05-14T00:27:03;13.45;;;11.55;;
55090;SDS011;40985;53.180;5.800;2023-05-14T00:29:30;17.40;;;11.27;;
55090;SDS011;40985;53.180;5.800;2023-05-14T00:31:56;19.23;;;11.38;;
55090;SDS011;40985;53.180;5.800;2023-05-14T00:34:22;15.00;;;11.77;;
55090;SDS011;40985;53.180;5.800;2023-05-14T00:36:49;16.88;;;13.18;;
55090;SDS011;40985;53.180;5.800;2023-05-14T00:39:15;19.88;;;12.60;;
55090;SDS011;40985;53.180;5.800;2023-05-14T00:41:41;19.35;;;13.75;;
55090;SDS011;40985;53.180;5.800;2023-05-14T00:44:06;21.70;;;13.35;;
55090;SDS011;40985;53.180;5.800;2023-05-14T00:46:32;20.23;;;12.73;;
55090;SDS011;40985;53.180;5.800;2023-05-14T00:48:58;18.15;;;11.73;;
55090;SDS011;40985;53.180;5.800;2023-05-14T00:51:24;17.63;;;11.73;;
55090;SDS011;40985;53.180;5.800;2023-05-14T00:53:50;16.77;;;11.63;;
55090;SDS011;40985;53.180;5.800;2023-05-14T00:56:16;17.02;;;10.93;;
55090;SDS011;40985;53.180;5.800;2023-05-14T00:58:42;18.05;;;11.73;;
55090;SDS011;40985;53.180;5.800;2023-05-14T01:01:08;18.08;;;10.50;;
55090;SDS011;40985;53.180;5.800;2023-05-14T01:03:36;18.58;;;10.00;;
55090;SDS011;40985;53.180;5.800;2023-05-14T01:06:16;18.50;;;11.68;;
55090;SDS011;40985;53.180;5.800;2023-05-14T01:09:35;17.45;;;10.25;;
55090;SDS011;40985;53.180;5.800;2023-05-14T01:12:00;14.25;;;9.98;;
55090;SDS011;40985;53.180;5.800;2023-05-14T01:14:43;19.08;;;10.70;;
55090;SDS011;40985;53.180;5.800;2023-05-14T01:17:13;20.77;;;11.52;;
55090;SDS011;40985;53.180;5.800;2023-05-14T01:19:44;21.38;;;14.23;;
55090;SDS011;40985;53.180;5.800;2023-05-14T01:22:11;29.05;;;14.05;;
55090;SDS011;40985;53.180;5.800;2023-05-14T01:24:37;21.13;;;14.52;;
55090;SDS011;40985;53.180;5.800;2023-05-14T01:29:44;25.75;;;14.57;;
55090;SDS011;40985;53.180;5.800;2023-05-14T01:32:15;22.48;;;12.38;;
55090;SDS011;40985;53.180;5.800;2023-05-14T01:34:42;18.98;;;12.82;;
55090;SDS011;40985;53.180;5.800;2023-05-14T01:37:11;21.10;;;13.30;;
55090;SDS011;40985;53.180;5.800;2023-05-14T01:39:37;24.17;;;12.98;;
55090;SDS011;40985;53.180;5.800;2023-05-14T01:42:05;21.45;;;13.65;;
55090;SDS011;40985;53.180;5.800;2023-05-14T01:44:32;24.80;;;13.32;;
55090;SDS011;40985;53.180;5.800;2023-05-14T01:46:57;19.17;;;12.52;;
55090;SDS011;40985;53.180;5.800;2023-05-14T01:49:23;19.20;;;12.35;;
55090;SDS011;40985;53.180;5.800;2023-05-14T01:51:49;23.27;;;12.30;;
55090;SDS011;40985;53.180;5.800;2023-05-14T01:54:14;18.65;;;12.50;;
55090;SDS011;40985;53.180;5.800;2023-05-14T01:56:40;25.05;;;13.68;;
55090;SDS011;40985;53.180;5.800;2023-05-14T01:59:05;21.50;;;13.23;;
55090;SDS011;40985;53.180;5.800;2023-05-14T02:01:31;22.48;;;13.80;;
55090;SDS011;40985;53.180;5.800;2023-05-14T02:03:57;20.73;;;12.88;;
55090;SDS011;40985;53.180;5.800;2023-05-14T02:06:25;18.20;;;13.77;;
55090;SDS011;40985;53.180;5.800;2023-05-14T02:08:50;24.08;;;13.48;;
55090;SDS011;40985;53.180;5.800;2023-05-14T02:11:16;22.58;;;14.30;;
55090;SDS011;40985;53.180;5.800;2023-05-14T02:13:42;22.52;;;15.15;;
55090;SDS011;40985;53.180;5.800;2023-05-14T02:16:07;22.73;;;15.48;;
55090;SDS011;40985;53.180;5.800;2023-05-14T02:18:33;28.80;;;16.65;;
55090;SDS011;40985;53.180;5.800;2023-05-14T02:20:59;26.30;;;17.42;;
55090;SDS011;40985;53.180;5.800;2023-05-14T02:23:25;26.75;;;16.75;;
55090;SDS011;40985;53.180;5.800;2023-05-14T02:25:50;29.38;;;18.55;;
55090;SDS011;40985;53.180;5.800;2023-05-14T02:28:16;26.30;;;17.45;;
55090;SDS011;40985;53.180;5.800;2023-05-14T02:30:41;34.47;;;20.50;;
55090;SDS011;40985;53.180;5.800;2023-05-14T02:33:07;32.40;;;20.23;;
55090;SDS011;40985;53.180;5.800;2023-05-14T02:35:33;32.42;;;20.20;;
55090;SDS011;40985;53.180;5.800;2023-05-14T02:37:58;32.63;;;20.35;;
55090;SDS011;40985;53.180;5.800;2023-05-14T02:40:24;30.20;;;19.10;;
55090;SDS011;40985;53.180;5.800;2023-05-14T02:42:50;29.95;;;19.30;;
55090;SDS011;40985;53.180;5.800;2023-05-14T02:45:15;27.00;;;20.52;;
55090;SDS011;40985;53.180;5.800;2023-05-14T02:47:41;32.10;;;19.60;;
55090;SDS011;40985;53.180;5.800;2023-05-14T02:50:07;27.83;;;18.42;;
55090;SDS011;40985;53.180;5.800;2023-05-14T02:52:33;30.20;;;18.67;;
55090;SDS011;40985;53.180;5.800;2023-05-14T02:55:00;26.85;;;17.80;;
55090;SDS011;40985;53.180;5.800;2023-05-14T02:57:26;31.52;;;17.20;;
55090;SDS011;40985;53.180;5.800;2023-05-14T02:59:52;21.77;;;15.27;;
55090;SDS011;40985;53.180;5.800;2023-05-14T03:02:17;26.13;;;16.00;;
55090;SDS011;40985;53.180;5.800;2023-05-14T03:04:43;28.38;;;16.13;;
55090;SDS011;40985;53.180;5.800;2023-05-14T03:07:09;23.75;;;14.88;;
55090;SDS011;40985;53.180;5.800;2023-05-14T03:09:34;24.60;;;14.68;;
55090;SDS011;40985;53.180;5.800;2023-05-14T03:12:00;28.55;;;14.75;;
55090;SDS011;40985;53.180;5.800;2023-05-14T03:14:26;24.33;;;13.70;;
55090;SDS011;40985;53.180;5.800;2023-05-14T03:16:51;29.25;;;13.35;;
55090;SDS011;40985;53.180;5.800;2023-05-14T03:19:17;23.55;;;14.23;;
55090;SDS011;40985;53.180;5.800;2023-05-14T03:21:43;22.85;;;13.27;;
55090;SDS011;40985;53.180;5.800;2023-05-14T03:24:08;29.65;;;14.02;;
55090;SDS011;40985;53.180;5.800;2023-05-14T03:26:34;24.17;;;14.25;;
55090;SDS011;40985;53.180;5.800;2023-05-14T03:29:01;23.35;;;13.68;;
55090;SDS011;40985;53.180;5.800;2023-05-14T03:31:28;30.15;;;13.77;;
55090;SDS011;40985;53.180;5.800;2023-05-14T03:33:53;22.15;;;12.98;;
55090;SDS011;40985;53.180;5.800;2023-05-14T03:36:19;25.65;;;12.75;;
55090;SDS011;40985;53.180;5.800;2023-05-14T03:38:45;26.35;;;14.15;;
55090;SDS011;40985;53.180;5.800;2023-05-14T03:41:10;25.00;;;13.60;;
55090;SDS011;40985;53.180;5.800;2023-05-14T03:43:36;20.73;;;13.43;;
55090;SDS011;40985;53.180;5.800;2023-05-14T03:46:02;24.83;;;14.43;;
55090;SDS011;40985;53.180;5.800;2023-05-14T03:48:27;22.95;;;14.00;;
55090;SDS011;40985;53.180;5.800;2023-05-14T03:50:53;24.48;;;14.00;;
55090;SDS011;40985;53.180;5.800;2023-05-14T03:53:19;23.15;;;13.20;;
55090;SDS011;40985;53.180;5.800;2023-05-14T03:55:44;24.15;;;12.75;;
55090;SDS011;40985;53.180;5.800;2023-05-14T03:58:10;22.13;;;12.85;;
55090;SDS011;40985;53.180;5.800;2023-05-14T04:00:39;26.35;;;13.00;;
55090;SDS011;40985;53.180;5.800;2023-05-14T04:03:05;19.60;;;13.00;;
55090;SDS011;40985;53.180;5.800;2023-05-14T04:05:32;23.73;;;13.90;;
55090;SDS011;40985;53.180;5.800;2023-05-14T04:07:58;26.55;;;14.48;;
55090;SDS011;40985;53.180;5.800;2023-05-14T04:10:24;27.35;;;15.23;;
55090;SDS011;40985;53.180;5.800;2023-05-14T04:12:50;24.17;;;14.43;;
55090;SDS011;40985;53.180;5.800;2023-05-14T04:15:16;27.15;;;15.10;;
55090;SDS011;40985;53.180;5.800;2023-05-14T04:17:41;26.30;;;13.73;;
55090;SDS011;40985;53.180;5.800;2023-05-14T04:20:07;26.45;;;14.85;;
55090;SDS011;40985;53.180;5.800;2023-05-14T04:22:33;26.23;;;14.25;;
55090;SDS011;40985;53.180;5.800;2023-05-14T04:24:59;31.08;;;13.23;;
55090;SDS011;40985;53.180;5.800;2023-05-14T04:27:25;26.98;;;13.55;;
55090;SDS011;40985;53.180;5.800;2023-05-14T04:29:52;23.08;;;12.65;;
55090;SDS011;40985;53.180;5.800;2023-05-14T04:32:18;22.17;;;13.10;;
55090;SDS011;40985;53.180;5.800;2023-05-14T04:34:44;21.40;;;13.68;;
55090;SDS011;40985;53.180;5.800;2023-05-14T04:37:11;25.45;;;13.07;;
55090;SDS011;40985;53.180;5.800;2023-05-14T04:39:37;20.73;;;13.77;;
55090;SDS011;40985;53.180;5.800;2023-05-14T04:42:04;28.30;;;14.05;;
55090;SDS011;40985;53.180;5.800;2023-05-14T04:44:32;27.70;;;14.43;;
55090;SDS011;40985;53.180;5.800;2023-05-14T04:47:01;25.73;;;14.52;;
55090;SDS011;40985;53.180;5.800;2023-05-14T04:49:27;26.67;;;12.88;;
55090;SDS011;40985;53.180;5.800;2023-05-14T04:51:53;24.30;;;13.90;;
55090;SDS011;40985;53.180;5.800;2023-05-14T04:54:19;24.75;;;14.20;;
55090;SDS011;40985;53.180;5.800;2023-05-14T04:56:44;29.70;;;13.25;;
55090;SDS011;40985;53.180;5.800;2023-05-14T04:59:11;23.20;;;13.13;;
55090;SDS011;40985;53.180;5.800;2023-05-14T05:01:37;27.52;;;13.23;;
55090;SDS011;40985;53.180;5.800;2023-05-14T05:04:03;28.42;;;14.05;;
55090;SDS011;40985;53.180;5.800;2023-05-14T05:06:28;25.15;;;13.15;;
55090;SDS011;40985;53.180;5.800;2023-05-14T05:08:55;27.88;;;12.95;;
55090;SDS011;40985;53.180;5.800;2023-05-14T05:11:21;26.15;;;13.40;;
55090;SDS011;40985;53.180;5.800;2023-05-14T05:13:46;29.77;;;12.68;;
55090;SDS011;40985;53.180;5.800;2023-05-14T05:16:12;22.08;;;13.02;;
55090;SDS011;40985;53.180;5.800;2023-05-14T05:18:38;26.55;;;11.65;;
55090;SDS011;40985;53.180;5.800;2023-05-14T05:21:04;22.90;;;12.93;;
55090;SDS011;40985;53.180;5.800;2023-05-14T05:23:30;27.38;;;13.52;;
55090;SDS011;40985;53.180;5.800;2023-05-14T05:25:56;26.95;;;13.02;;
55090;SDS011;40985;53.180;5.800;2023-05-14T05:28:22;21.15;;;13.23;;
55090;SDS011;40985;53.180;5.800;2023-05-14T05:30:47;19.83;;;11.95;;
55090;SDS011;40985;53.180;5.800;2023-05-14T05:33:13;23.40;;;12.57;;
55090;SDS011;40985;53.180;5.800;2023-05-14T05:35:39;20.00;;;11.88;;
55090;SDS011;40985;53.180;5.800;2023-05-14T05:38:04;22.02;;;11.05;;
55090;SDS011;40985;53.180;5.800;2023-05-14T05:40:31;23.23;;;12.05;;
55090;SDS011;40985;53.180;5.800;2023-05-14T05:42:57;22.13;;;11.50;;
55090;SDS011;40985;53.180;5.800;2023-05-14T05:45:22;20.33;;;10.85;;
55090;SDS011;40985;53.180;5.800;2023-05-14T05:47:48;18.95;;;11.15;;
55090;SDS011;40985;53.180;5.800;2023-05-14T05:50:14;18.88;;;10.63;;
55090;SDS011;40985;53.180;5.800;2023-05-14T05:52:39;18.95;;;9.68;;
55090;SDS011;40985;53.180;5.800;2023-05-14T05:55:05;17.75;;;9.30;;
55090;SDS011;40985;53.180;5.800;2023-05-14T05:57:31;15.38;;;9.52;;
55090;SDS011;40985;53.180;5.800;2023-05-14T05:59:57;21.77;;;9.75;;
55090;SDS011;40985;53.180;5.800;2023-05-14T06:02:23;20.73;;;9.13;;
55090;SDS011;40985;53.180;5.800;2023-05-14T06:04:49;20.92;;;8.95;;
55090;SDS011;40985;53.180;5.800;2023-05-14T06:07:14;22.38;;;9.93;;
55090;SDS011;40985;53.180;5.800;2023-05-14T06:09:40;15.77;;;8.27;;
55090;SDS011;40985;53.180;5.800;2023-05-14T06:12:06;16.42;;;8.52;;
55090;SDS011;40985;53.180;5.800;2023-05-14T06:14:32;20.13;;;8.10;;
55090;SDS011;40985;53.180;5.800;2023-05-14T06:16:57;13.93;;;6.32;;
55090;SDS011;40985;53.180;5.800;2023-05-14T06:19:23;14.63;;;7.00;;
55090;SDS011;40985;53.180;5.800;2023-05-14T06:21:49;19.02;;;7.90;;
55090;SDS011;40985;53.180;5.800;2023-05-14T06:24:14;18.50;;;7.25;;
55090;SDS011;40985;53.180;5.800;2023-05-14T06:26:40;11.77;;;6.30;;
55090;SDS011;40985;53.180;5.800;2023-05-14T06:29:06;10.73;;;6.00;;
55090;SDS011;40985;53.180;5.800;2023-05-14T06:31:31;17.58;;;6.93;;
55090;SDS011;40985;53.180;5.800;2023-05-14T06:33:57;19.00;;;7.32;;
55090;SDS011;40985;53.180;5.800;2023-05-14T06:36:23;18.35;;;4.97;;
55090;SDS011;40985;53.180;5.800;2023-05-14T06:38:48;15.15;;;6.10;;
55090;SDS011;40985;53.180;5.800;2023-05-14T06:41:15;12.30;;;4.43;;
55090;SDS011;40985;53.180;5.800;2023-05-14T06:43:41;14.38;;;4.85;;
55090;SDS011;40985;53.180;5.800;2023-05-14T06:46:06;12.77;;;4.15;;
55090;SDS011;40985;53.180;5.800;2023-05-14T06:48:32;14.85;;;4.18;;
55090;SDS011;40985;53.180;5.800;2023-05-14T06:50:58;7.43;;;3.70;;
55090;SDS011;40985;53.180;5.800;2023-05-14T06:53:23;10.82;;;4.43;;
55090;SDS011;40985;53.180;5.800;2023-05-14T06:55:49;12.88;;;4.97;;
55090;SDS011;40985;53.180;5.800;2023-05-14T06:58:15;15.60;;;4.93;;
55090;SDS011;40985;53.180;5.800;2023-05-14T07:00:40;13.95;;;4.13;;
55090;SDS011;40985;53.180;5.800;2023-05-14T07:03:06;19.02;;;4.68;;
55090;SDS011;40985;53.180;5.800;2023-05-14T07:05:35;9.73;;;3.95;;
55090;SDS011;40985;53.180;5.800;2023-05-14T07:08:00;10.80;;;4.75;;
55090;SDS011;40985;53.180;5.800;2023-05-14T07:10:26;13.10;;;4.28;;
55090;SDS011;40985;53.180;5.800;2023-05-14T07:12:52;16.65;;;5.10;;
55090;SDS011;40985;53.180;5.800;2023-05-14T07:15:17;18.13;;;5.10;;
55090;SDS011;40985;53.180;5.800;2023-05-14T07:17:43;14.25;;;4.82;;
55090;SDS011;40985;53.180;5.800;2023-05-14T07:20:09;13.80;;;4.85;;
55090;SDS011;40985;53.180;5.800;2023-05-14T07:22:35;14.00;;;4.80;;
55090;SDS011;40985;53.180;5.800;2023-05-14T07:25:01;12.10;;;4.55;;
55090;SDS011;40985;53.180;5.800;2023-05-14T07:27:27;15.70;;;5.50;;
55090;SDS011;40985;53.180;5.800;2023-05-14T07:29:52;15.25;;;4.80;;
55090;SDS011;40985;53.180;5.800;2023-05-14T07:32:18;13.57;;;4.97;;
55090;SDS011;40985;53.180;5.800;2023-05-14T07:34:43;11.50;;;4.30;;
55090;SDS011;40985;53.180;5.800;2023-05-14T07:37:10;8.93;;;3.60;;
55090;SDS011;40985;53.180;5.800;2023-05-14T07:39:35;13.10;;;5.05;;
55090;SDS011;40985;53.180;5.800;2023-05-14T07:42:01;9.55;;;4.10;;
55090;SDS011;40985;53.180;5.800;2023-05-14T07:44:28;12.02;;;3.67;;
55090;SDS011;40985;53.180;5.800;2023-05-14T07:46:53;13.68;;;3.90;;
55090;SDS011;40985;53.180;5.800;2023-05-14T07:49:19;11.57;;;3.70;;
55090;SDS011;40985;53.180;5.800;2023-05-14T07:51:45;10.32;;;3.50;;
55090;SDS011;40985;53.180;5.800;2023-05-14T07:54:10;9.40;;;4.28;;
55090;SDS011;40985;53.180;5.800;2023-05-14T07:56:37;14.13;;;4.45;;
55090;SDS011;40985;53.180;5.800;2023-05-14T07:59:02;10.35;;;4.82;;
55090;SDS011;40985;53.180;5.800;2023-05-14T08:01:28;15.43;;;5.15;;
55090;SDS011;40985;53.180;5.800;2023-05-14T08:03:54;12.38;;;4.72;;
55090;SDS011;40985;53.180;5.800;2023-05-14T08:06:20;10.80;;;5.03;;
55090;SDS011;40985;53.180;5.800;2023-05-14T08:08:46;9.93;;;4.35;;
55090;SDS011;40985;53.180;5.800;2023-05-14T08:11:12;8.45;;;3.78;;
55090;SDS011;40985;53.180;5.800;2023-05-14T08:13:38;9.38;;;4.70;;
55090;SDS011;40985;53.180;5.800;2023-05-14T08:16:03;12.13;;;4.47;;
55090;SDS011;40985;53.180;5.800;2023-05-14T08:18:30;12.35;;;4.15;;
55090;SDS011;40985;53.180;5.800;2023-05-14T08:20:55;13.43;;;4.22;;
55090;SDS011;40985;53.180;5.800;2023-05-14T08:23:21;12.73;;;4.28;;
55090;SDS011;40985;53.180;5.800;2023-05-14T08:25:47;13.45;;;4.78;;
55090;SDS011;40985;53.180;5.800;2023-05-14T08:28:12;12.07;;;4.10;;
55090;SDS011;40985;53.180;5.800;2023-05-14T08:30:38;10.93;;;4.05;;
55090;SDS011;40985;53.180;5.800;2023-05-14T08:33:04;11.55;;;4.28;;
55090;SDS011;40985;53.180;5.800;2023-05-14T08:35:30;11.35;;;4.90;;
55090;SDS011;40985;53.180;5.800;2023-05-14T08:37:55;8.57;;;4.35;;
55090;SDS011;40985;53.180;5.800;2023-05-14T08:40:21;9.20;;;3.92;;
55090;SDS011;40985;53.180;5.800;2023-05-14T08:42:47;13.13;;;4.63;;
55090;SDS011;40985;53.180;5.800;2023-05-14T08:45:18;9.85;;;4.82;;
55090;SDS011;40985;53.180;5.800;2023-05-14T08:47:49;11.13;;;5.45;;
55090;SDS011;40985;53.180;5.800;2023-05-14T08:50:16;10.55;;;4.50;;
55090;SDS011;40985;53.180;5.800;2023-05-14T08:52:42;11.90;;;5.13;;
55090;SDS011;40985;53.180;5.800;2023-05-14T08:55:09;11.35;;;5.63;;
55090;SDS011;40985;53.180;5.800;2023-05-14T08:57:36;9.38;;;4.68;;
55090;SDS011;40985;53.180;5.800;2023-05-14T09:00:02;10.43;;;4.30;;
55090;SDS011;40985;53.180;5.800;2023-05-14T09:02:38;9.75;;;3.78;;
55090;SDS011;40985;53.180;5.800;2023-05-14T09:05:05;9.82;;;4.32;;
55090;SDS011;40985;53.180;5.800;2023-05-14T09:07:31;6.85;;;3.50;;
55090;SDS011;40985;53.180;5.800;2023-05-14T09:09:57;11.80;;;3.60;;
55090;SDS011;40985;53.180;5.800;2023-05-14T09:12:26;9.13;;;3.38;;
55090;SDS011;40985;53.180;5.800;2023-05-14T09:14:51;13.55;;;3.78;;
55090;SDS011;40985;53.180;5.800;2023-05-14T09:17:17;12.10;;;4.10;;
55090;SDS011;40985;53.180;5.800;2023-05-14T09:19:44;6.82;;;2.83;;
55090;SDS011;40985;53.180;5.800;2023-05-14T09:22:14;11.98;;;3.60;;
55090;SDS011;40985;53.180;5.800;2023-05-14T09:24:41;9.93;;;3.55;;
55090;SDS011;40985;53.180;5.800;2023-05-14T09:27:08;8.95;;;3.40;;
55090;SDS011;40985;53.180;5.800;2023-05-14T09:29:35;12.13;;;3.50;;
55090;SDS011;40985;53.180;5.800;2023-05-14T09:32:01;11.35;;;4.05;;
55090;SDS011;40985;53.180;5.800;2023-05-14T09:34:32;10.27;;;3.67;;
55090;SDS011;40985;53.180;5.800;2023-05-14T09:37:02;7.93;;;3.45;;
55090;SDS011;40985;53.180;5.800;2023-05-14T09:39:29;6.80;;;3.20;;
55090;SDS011;40985;53.180;5.800;2023-05-14T09:41:55;9.50;;;3.42;;
55090;SDS011;40985;53.180;5.800;2023-05-14T09:44:22;6.82;;;2.60;;
55090;SDS011;40985;53.180;5.800;2023-05-14T09:46:49;10.15;;;2.70;;
55090;SDS011;40985;53.180;5.800;2023-05-14T09:49:14;9.35;;;2.70;;
55090;SDS011;40985;53.180;5.800;2023-05-14T09:51:40;9.35;;;3.03;;
55090;SDS011;40985;53.180;5.800;2023-05-14T09:54:06;6.85;;;2.83;;
55090;SDS011;40985;53.180;5.800;2023-05-14T09:56:33;9.95;;;3.70;;
55090;SDS011;40985;53.180;5.800;2023-05-14T09:58:59;9.70;;;3.30;;
55090;SDS011;40985;53.180;5.800;2023-05-14T10:01:25;9.38;;;2.90;;
55090;SDS011;40985;53.180;5.800;2023-05-14T10:03:53;10.32;;;3.47;;
55090;SDS011;40985;53.180;5.800;2023-05-14T10:06:24;8.25;;;3.10;;
55090;SDS011;40985;53.180;5.800;2023-05-14T10:11:21;8.82;;;3.80;;
55090;SDS011;40985;53.180;5.800;2023-05-14T10:14:03;12.07;;;3.67;;
55090;SDS011;40985;53.180;5.800;2023-05-14T10:16:34;7.25;;;3.72;;
55090;SDS011;40985;53.180;5.800;2023-05-14T10:19:08;7.70;;;2.83;;
55090;SDS011;40985;53.180;5.800;2023-05-14T10:21:35;9.60;;;3.50;;
55090;SDS011;40985;53.180;5.800;2023-05-14T10:24:05;10.13;;;4.10;;
55090;SDS011;40985;53.180;5.800;2023-05-14T10:26:33;9.75;;;3.78;;
55090;SDS011;40985;53.180;5.800;2023-05-14T10:29:04;6.95;;;4.20;;
55090;SDS011;40985;53.180;5.800;2023-05-14T10:31:46;9.93;;;3.35;;
55090;SDS011;40985;53.180;5.800;2023-05-14T10:37:11;10.02;;;3.85;;
55090;SDS011;40985;53.180;5.800;2023-05-14T10:39:52;5.43;;;3.60;;
55090;SDS011;40985;53.180;5.800;2023-05-14T10:42:26;9.13;;;4.18;;
55090;SDS011;40985;53.180;5.800;2023-05-14T10:45:05;8.60;;;4.07;;
55090;SDS011;40985;53.180;5.800;2023-05-14T10:47:45;12.65;;;5.15;;
55090;SDS011;40985;53.180;5.800;2023-05-14T10:50:12;13.65;;;5.10;;
55090;SDS011;40985;53.180;5.800;2023-05-14T10:52:42;8.00;;;4.38;;
55090;SDS011;40985;53.180;5.800;2023-05-14T10:55:11;12.35;;;4.93;;
55090;SDS011;40985;53.180;5.800;2023-05-14T10:57:39;14.20;;;5.35;;
55090;SDS011;40985;53.180;5.800;2023-05-14T11:00:07;10.55;;;4.40;;
55090;SDS011;40985;53.180;5.800;2023-05-14T11:02:39;9.35;;;4.60;;
55090;SDS011;40985;53.180;5.800;2023-05-14T11:05:07;10.73;;;4.32;;
55090;SDS011;40985;53.180;5.800;2023-05-14T11:07:35;9.27;;;5.50;;
55090;SDS011;40985;53.180;5.800;2023-05-14T11:12:42;10.98;;;5.13;;
55090;SDS011;40985;53.180;5.800;2023-05-14T11:15:10;9.75;;;4.40;;
55090;SDS011;40985;53.180;5.800;2023-05-14T11:17:39;9.02;;;5.00;;
55090;SDS011;40985;53.180;5.800;2023-05-14T11:20:06;8.55;;;4.80;;
55090;SDS011;40985;53.180;5.800;2023-05-14T11:22:36;12.27;;;5.10;;
55090;SDS011;40985;53.180;5.800;2023-05-14T11:25:04;10.07;;;4.95;;
55090;SDS011;40985;53.180;5.800;2023-05-14T11:27:32;10.63;;;5.28;;
55090;SDS011;40985;53.180;5.800;2023-05-14T11:29:59;9.40;;;4.57;;
55090;SDS011;40985;53.180;5.800;2023-05-14T11:32:28;9.43;;;4.82;;
55090;SDS011;40985;53.180;5.800;2023-05-14T11:34:56;11.68;;;6.28;;
55090;SDS011;40985;53.180;5.800;2023-05-14T11:37:22;11.80;;;5.63;;
55090;SDS011;40985;53.180;5.800;2023-05-14T11:42:16;6.38;;;4.30;;
55090;SDS011;40985;53.180;5.800;2023-05-14T11:44:45;10.85;;;5.10;;
55090;SDS011;40985;53.180;5.800;2023-05-14T11:47:12;9.35;;;4.75;;
55090;SDS011;40985;53.180;5.800;2023-05-14T11:49:39;10.50;;;5.40;;
55090;SDS011;40985;53.180;5.800;2023-05-14T11:52:06;12.88;;;5.22;;
55090;SDS011;40985;53.180;5.800;2023-05-14T11:57:08;9.90;;;5.18;;
55090;SDS011;40985;53.180;5.800;2023-05-14T11:59:39;9.00;;;5.20;;
55090;SDS011;40985;53.180;5.800;2023-05-14T12:02:07;13.38;;;5.25;;
55090;SDS011;40985;53.180;5.800;2023-05-14T12:04:38;8.88;;;5.00;;
55090;SDS011;40985;53.180;5.800;2023-05-14T12:07:09;9.45;;;5.53;;
55090;SDS011;40985;53.180;5.800;2023-05-14T12:09:36;12.05;;;5.28;;
55090;SDS011;40985;53.180;5.800;2023-05-14T12:12:07;9.75;;;4.72;;
55090;SDS011;40985;53.180;5.800;2023-05-14T12:14:39;8.77;;;5.30;;
55090;SDS011;40985;53.180;5.800;2023-05-14T12:17:16;9.98;;;4.97;;
55090;SDS011;40985;53.180;5.800;2023-05-14T12:19:44;9.27;;;5.35;;
55090;SDS011;40985;53.180;5.800;2023-05-14T12:22:11;8.70;;;4.90;;
55090;SDS011;40985;53.180;5.800;2023-05-14T12:24:39;9.82;;;5.00;;
55090;SDS011;40985;53.180;5.800;2023-05-14T12:27:06;10.45;;;5.15;;
55090;SDS011;40985;53.180;5.800;2023-05-14T12:29:36;8.70;;;4.53;;
55090;SDS011;40985;53.180;5.800;2023-05-14T12:32:06;8.02;;;4.38;;
55090;SDS011;40985;53.180;5.800;2023-05-14T12:34:33;9.82;;;4.63;;
55090;SDS011;40985;53.180;5.800;2023-05-14T12:37:03;7.20;;;4.25;;
55090;SDS011;40985;53.180;5.800;2023-05-14T12:39:31;8.73;;;4.35;;
55090;SDS011;40985;53.180;5.800;2023-05-14T12:41:58;7.13;;;4.40;;
55090;SDS011;40985;53.180;5.800;2023-05-14T12:44:23;10.55;;;4.85;;
55090;SDS011;40985;53.180;5.800;2023-05-14T12:46:49;9.70;;;5.10;;
55090;SDS011;40985;53.180;5.800;2023-05-14T12:49:14;6.88;;;4.10;;
55090;SDS011;40985;53.180;5.800;2023-05-14T12:51:40;8.18;;;4.90;;
55090;SDS011;40985;53.180;5.800;2023-05-14T12:54:06;10.98;;;4.78;;
55090;SDS011;40985;53.180;5.800;2023-05-14T12:56:31;8.55;;;4.50;;
55090;SDS011;40985;53.180;5.800;2023-05-14T12:58:57;8.38;;;3.92;;
55090;SDS011;40985;53.180;5.800;2023-05-14T13:01:23;7.35;;;3.85;;
55090;SDS011;40985;53.180;5.800;2023-05-14T13:03:49;11.18;;;4.70;;
55090;SDS011;40985;53.180;5.800;2023-05-14T13:06:14;8.65;;;4.43;;
55090;SDS011;40985;53.180;5.800;2023-05-14T13:08:40;6.95;;;4.47;;
55090;SDS011;40985;53.180;5.800;2023-05-14T13:11:06;10.15;;;4.80;;
55090;SDS011;40985;53.180;5.800;2023-05-14T13:13:32;12.18;;;4.88;;
55090;SDS011;40985;53.180;5.800;2023-05-14T13:15:58;12.02;;;5.38;;
55090;SDS011;40985;53.180;5.800;2023-05-14T13:18:23;7.90;;;4.57;;
55090;SDS011;40985;53.180;5.800;2023-05-14T13:20:50;8.27;;;4.75;;
55090;SDS011;40985;53.180;5.800;2023-05-14T13:23:16;10.80;;;4.30;;
55090;SDS011;40985;53.180;5.800;2023-05-14T13:25:42;8.95;;;4.07;;
55090;SDS011;40985;53.180;5.800;2023-05-14T13:28:07;9.60;;;4.43;;
55090;SDS011;40985;53.180;5.800;2023-05-14T13:30:33;11.90;;;4.60;;
55090;SDS011;40985;53.180;5.800;2023-05-14T13:32:59;5.22;;;4.28;;
55090;SDS011;40985;53.180;5.800;2023-05-14T13:35:25;9.00;;;4.30;;
55090;SDS011;40985;53.180;5.800;2023-05-14T13:37:50;7.30;;;4.13;;
55090;SDS011;40985;53.180;5.800;2023-05-14T13:40:16;13.05;;;5.05;;
55090;SDS011;40985;53.180;5.800;2023-05-14T13:42:42;9.98;;;5.05;;
55090;SDS011;40985;53.180;5.800;2023-05-14T13:45:08;10.27;;;4.65;;
55090;SDS011;40985;53.180;5.800;2023-05-14T13:47:34;9.27;;;5.57;;
55090;SDS011;40985;53.180;5.800;2023-05-14T13:49:59;13.45;;;5.65;;
55090;SDS011;40985;53.180;5.800;2023-05-14T13:52:25;9.35;;;4.18;;
55090;SDS011;40985;53.180;5.800;2023-05-14T13:54:51;6.57;;;4.45;;
55090;SDS011;40985;53.180;5.800;2023-05-14T13:57:17;8.00;;;4.82;;
55090;SDS011;40985;53.180;5.800;2023-05-14T13:59:44;7.22;;;4.82;;
55090;SDS011;40985;53.180;5.800;2023-05-14T14:02:10;9.48;;;5.00;;
55090;SDS011;40985;53.180;5.800;2023-05-14T14:04:36;8.90;;;4.75;;
55090;SDS011;40985;53.180;5.800;2023-05-14T14:07:02;10.70;;;6.20;;
55090;SDS011;40985;53.180;5.800;2023-05-14T14:09:28;9.52;;;7.07;;
55090;SDS011;40985;53.180;5.800;2023-05-14T14:11:59;8.73;;;6.10;;
55090;SDS011;40985;53.180;5.800;2023-05-14T14:14:25;9.35;;;5.95;;
55090;SDS011;40985;53.180;5.800;2023-05-14T14:16:51;10.60;;;6.82;;
55090;SDS011;40985;53.180;5.800;2023-05-14T14:19:17;8.57;;;6.68;;
55090;SDS011;40985;53.180;5.800;2023-05-14T14:21:43;12.30;;;7.05;;
55090;SDS011;40985;53.180;5.800;2023-05-14T14:24:09;9.00;;;7.13;;
55090;SDS011;40985;53.180;5.800;2023-05-14T14:26:34;11.35;;;7.75;;
55090;SDS011;40985;53.180;5.800;2023-05-14T14:29:00;11.50;;;7.57;;
55090;SDS011;40985;53.180;5.800;2023-05-14T14:31:26;11.27;;;8.05;;
55090;SDS011;40985;53.180;5.800;2023-05-14T14:33:51;13.07;;;7.80;;
55090;SDS011;40985;53.180;5.800;2023-05-14T14:36:17;10.48;;;8.18;;
55090;SDS011;40985;53.180;5.800;2023-05-14T14:38:43;10.05;;;7.78;;
55090;SDS011;40985;53.180;5.800;2023-05-14T14:41:08;10.90;;;8.27;;
55090;SDS011;40985;53.180;5.800;2023-05-14T14:43:34;10.80;;;7.93;;
55090;SDS011;40985;53.180;5.800;2023-05-14T14:46:01;10.05;;;7.85;;